ADDS METAR Data INFO
IDs: Format: Raw Decoded Include TAF

Data at: 1933 UTC 19 Jul 2018

KGTR 191856Z 22003KT 10SM CLR 28/24 A2994 RMK AO2 SLP138 T02830239 PNO $
KGTR 191756Z 19005KT 10SM CLR 25/23 A2995 RMK AO2 RAE10 SLP141 6//// T02500233 10250 20228 58013 PNO $
KGTR 191656Z 18006KT 10SM -RA FEW037 SCT049 BKN075 23/23 A2998 RMK AO2 TSE10B20E47 SLP149 T02330228 PNO $
KGTR 191653Z 17004KT 10SM -RA FEW004 SCT037 BKN049 23/23 A2998 RMK AO2 TSE10B20E47 PNO $
KGTR 191646Z 15006KT 10SM VCTS -RA FEW005 BKN034 OVC080 23/23 A2998 RMK AO2 TSE10B20 PNO $
KGTR 191627Z 20007KT 3SM VCTS -RA BR SCT005 BKN018 OVC038 23/22 A3000 RMK AO2 LTG DSNT NW TSE10B20 PNO $
KGTR 191623Z 19006KT 1 1/4SM VCTS RA BR SCT005 BKN022 OVC045 23/22 A3000 RMK AO2 TSE10B20 PNO $
KGTR 191620Z 15005KT 3/4SM VCTS +RA BR SCT005 BKN022 OVC045 23/22 A3000 RMK AO2 TSE10B20 RVRNO PNO $
KGTR 191616Z 00000KT 1SM +RA BR BKN005 BKN022 OVC045 23/22 A3000 RMK AO2 TSE10 CIG 003V008 RVRNO PNO $
KGTR 191613Z 00000KT 2SM +RA BR BKN005 BKN022 OVC043 23/22 A3000 RMK AO2 TSE10 PNO $
KGTR 191609Z VRB04KT 8SM VCTS RA BKN005 OVC043 23/23 A3001 RMK AO2 PNO $
KGTR 191604Z 34005KT 10SM VCTS -RA SCT007 OVC043 23/23 A3001 RMK AO2 PNO $
KGTR 191516Z 11008KT 10SM VCTS FEW006 SCT017 OVC060 23/23 A2998 RMK AO2 LTG DSNT N-SE RAE11 PNO $
KGTR 191502Z 09009KT 4SM VCTS -RA BR SCT009 BKN018 OVC043 23/23 A2998 RMK AO2 LTG DSNT N-SE PNO $
KGTR 191456Z 10008KT 2SM TSRA BR SCT006 BKN012 OVC018 23/22 A2999 RMK AO2 WSHFT 1430 VIS 1 1/4V5 LTG DSNT N AND SE TSE17B24RAB12 SLP154 6//// T02280222 53007 PNO $
KGTR 191444Z 07012KT 1SM +TSRA BR BKN006 BKN011 OVC028 23/23 A2998 RMK AO2 WSHFT 1430 LTG DSNT N-SE TSE17B24RAB12 CIG 003V009 RVRNO PNO $
KGTR 191440Z 06012KT 1 3/4SM +TSRA BR BKN006 BKN011 OVC028 24/23 A2999 RMK AO2 LTG DSNT N-SE TSE17B24RAB12 CIG 003V008 PNO $
KGTR 191430Z 01010KT 7SM VCTS -RA SCT004 BKN007 OVC013 24/23 A3000 RMK AO2 LTG DSNT N-SE TSE17B24RAB12 CIG 006V010 PNO $
KGTR 191421Z 18005G16KT 2SM -RA BR BKN007 BKN013 OVC045 24/23 A2998 RMK AO2 LTG DSNT NE AND SE TSE17RAB12 CIG 005V011 PNO $
KGTR 191414Z 15015KT 1 3/4SM +TSRA BR BKN007 24/23 A2997 RMK AO2 LTG DSNT ALQDS RAB12 CIG 005V011 PNO $
KGTR 191404Z 32006KT 10SM TS BKN009 24/23 A3000 RMK AO2 LTG DSNT ALQDS CIG 005V011 PRESRR PNO $
KGTR 191356Z 04006KT 10SM VCTS SCT009 BKN045 25/24 A2998 RMK AO2 LTG DSNT ALQDS TSB05E20B24RAB12E52 SLP150 T02500239 PNO $
KGTR 191352Z VRB04KT 10SM VCTS SCT009 SCT045 25/23 A2997 RMK AO2 LTG DSNT ALQDS TSB05E20B24RAB12E52 PNO $
KGTR 191344Z 10003KT 10SM VCTS -RA BKN009 BKN013 24/23 A2997 RMK AO2 LTG DSNT N-SE TSB05E20B24RAB12 CIG 005V011 PNO $
KGTR 191324Z 17003KT 10SM VCTS -RA SCT006 OVC013 24/23 A2997 RMK AO2 LTG DSNT ALQDS TSB05E20B24RAB12 PNO $
KGTR 191305Z 00000KT 10SM VCTS BKN013 OVC022 24/23 A2997 RMK AO2 LTG DSNT N-SE TSB05 PNO $
KGTR 191256Z 00000KT 10SM SCT013 BKN022 OVC120 24/23 A2997 RMK AO2 LTG DSNT N-SE TSE09 SLP148 T02440233 PNO $
KGTR 191251Z 00000KT 10SM FEW011 BKN022 OVC120 24/23 A2997 RMK AO2 LTG DSNT N-SE TSE09 PNO $
KGTR 191215Z 00000KT 10SM OVC050 24/23 A2995 RMK AO2 LTG DSNT E AND SE AND NW TSE09 PNO $
KGTR 191156Z 00000KT 10SM VCTS OVC050 24/23 A2995 RMK AO2 LTG DSNT N AND SE AND NW TSB53 SLP140 6//// 7//// T02440233 10250 20233 51011 PNO $
KGTR 191056Z 28003KT 10SM BKN060 OVC090 24/23 A2993 RMK AO2 LTG DSNT E AND SE SLP136 T02390228 PNO $
KGTR 190956Z AUTO 00000KT 10SM OVC100 24/23 A2993 RMK AO2 SLP135 T02390228 PNO $
KGTR 190856Z AUTO 25003KT 10SM CLR 23/23 A2992 RMK AO2 SLP129 6//// T02330228 55005 PNO $
KGTR 190756Z AUTO 00000KT 10SM CLR 24/23 A2991 RMK AO2 SLP127 T02390228 PNO $
KGTR 190656Z AUTO 28004KT 10SM CLR 24/23 A2991 RMK AO2 SLP129 T02390233 PNO $
KGTR 190556Z AUTO 32003KT 9SM CLR 25/23 A2993 RMK AO2 SLP134 6//// T02500233 10306 20250 403440228 58003 PNO $
KGTR 190525Z AUTO 00000KT 10SM SCT028 SCT034 BKN120 26/23 A2995 RMK AO2 PNO $
KGTR 190456Z AUTO 30003KT 10SM FEW014 OVC026 26/23 A2995 RMK AO2 LTG DSNT E SLP142 T02610233 PNO $
KGTR 190440Z AUTO 17008KT 10SM FEW014 BKN022 OVC041 26/23 A2996 RMK AO2 LTG DSNT E PNO $
KGTR 190356Z AUTO 32004KT 10SM FEW041 26/24 A2995 RMK AO2 SLP140 T02560239 PNO $
KGTR 190256Z AUTO 27005KT 10SM CLR 26/24 A2994 RMK AO2 SLP138 6//// T02610239 53010 PNO $
KGTR 190156Z AUTO 27004KT 10SM CLR 27/24 A2992 RMK AO2 SLP133 T02720244 PNO $
KGTR 190056Z AUTO 29005KT 10SM CLR 29/26 A2992 RMK AO2 SLP131 T02890261 PNO $
KGTR 182356Z 33003KT 10SM CLR 31/26 A2991 RMK AO2 SLP128 6//// T03060261 10344 20306 53001 PNO $
KGTR 182256Z 01005KT 10SM CLR 32/26 A2991 RMK AO2 SLP127 T03170256 PNO $
KGTR 182156Z 01005KT 10SM CLR 33/24 A2991 RMK AO2 SLP126 T03280244 PNO $
KGTR 182056Z 06004KT 10SM FEW040 33/24 A2991 RMK AO2 SLP126 6//// T03330244 57024 PNO $
KGTR 181956Z VRB03KT 10SM FEW040 33/25 A2993 RMK AO2 SLP133 T03280250 PNO $
KGTR 181856Z 01003KT 10SM FEW043 33/26 A2996 RMK AO2 SLP142 T03330256 PNO $
KGTR 181756Z VRB03KT 10SM FEW043 31/25 A2998 RMK AO2 SLP151 6//// T03060250 10317 20233 56010 PNO $
KGTR 181720Z 00000KT 10SM FEW019 31/25 A2998 RMK AO2 PNO $
KGTR 181656Z 00000KT 10SM BKN019 31/26 A2999 RMK AO2 SLP155 T03060256 PNO $
KGTR 181654Z 06003KT 10SM BKN019 31/26 A2999 RMK AO2 PNO $
KGTR 181609Z VRB03KT 10SM FEW020 29/26 A3001 RMK AO2 PNO $
KGTR 181556Z 00000KT 10SM BKN018 28/25 A3001 RMK AO2 SLP160 T02830250 PNO $
KGTR 181456Z VRB05KT 10SM BKN011 OVC016 28/25 A3001 RMK AO2 SLP162 6//// T02780250 51001 PNO $
KGTR 181432Z 02004KT 10SM BKN013 28/25 A3001 RMK AO2 PNO $
KGTR 181423Z 35004KT 10SM FEW009 SCT015 28/24 A3001 RMK AO2 PNO $
KGTR 181403Z 34004KT 10SM SCT016 27/24 A3001 RMK AO2 PNO $
KGTR 181356Z 34003KT 10SM BKN016 27/24 A3001 RMK AO2 SLP161 T02720244 PNO $
KGTR 181329Z 36004KT 10SM FEW007 BKN016 27/24 A3001 RMK AO2 PNO $
KGTR 181256Z 02003KT 10SM FEW016 25/24 A3001 RMK AO2 SLP162 T02500239 PNO $
KGTR 181241Z 01003KT 10SM SCT016 25/24 A3002 RMK AO2 PNO $
KGTR 181211Z 00000KT 10SM BKN016 24/23 A3001 RMK AO2 PNO $
KGTR 181156Z 00000KT 10SM FEW001 23/23 A3001 RMK AO2 SLP162 6//// 7//// T02330228 10233 20228 51012 PNO $
KGTR 181145Z 00000KT 7SM FEW001 23/23 A3001 RMK AO2 PNO $
KGTR 181112Z 00000KT 10SM SCT015 23/23 A3000 RMK AO2 PNO $
KGTR 181105Z 00000KT 9SM BKN015 23/22 A3001 RMK AO2 PNO $
KGTR 181056Z AUTO 00000KT 10SM FEW015 23/22 A3000 RMK AO2 SLP159 T02280222 PNO $
KGTR 181043Z AUTO 06003KT 10SM SCT015 23/23 A3000 RMK AO2 PNO $
KGTR 181033Z AUTO 06003KT 10SM BKN015 23/22 A3000 RMK AO2 PNO $
KGTR 180956Z AUTO 04003KT 9SM CLR 23/22 A2999 RMK AO2 SLP155 T02280222 PNO $
KGTR 180856Z AUTO 00000KT 9SM CLR 23/23 A2997 RMK AO2 SLP149 6//// T02280228 55003 PNO $
KGTR 180756Z AUTO 00000KT 10SM CLR 23/23 A2997 RMK AO2 SLP147 T02330228 PNO $